createdAt,value
2022-11-16T00:00:17.659Z,8.38
2022-11-16T00:02:44.755Z,8.57
2022-11-16T00:05:11.930Z,8.65
2022-11-16T00:07:39.364Z,8.35
2022-11-16T00:10:06.823Z,8.30
2022-11-16T00:12:34.153Z,8.65
2022-11-16T00:15:01.297Z,7.80
2022-11-16T00:17:28.568Z,8.27
2022-11-16T00:19:55.841Z,8.43
2022-11-16T00:22:23.079Z,7.95
2022-11-16T00:24:50.328Z,7.85
2022-11-16T00:27:17.548Z,8.03
2022-11-16T00:29:44.828Z,8.52
2022-11-16T00:32:12.492Z,8.20
2022-11-16T00:34:40.381Z,8.20
2022-11-16T00:37:07.606Z,8.65
2022-11-16T00:39:34.821Z,8.97
2022-11-16T00:42:02.009Z,8.63
2022-11-16T00:44:29.251Z,8.10
2022-11-16T00:46:56.410Z,8.65
2022-11-16T00:49:23.645Z,8.60
2022-11-16T00:51:50.778Z,8.63
2022-11-16T00:54:17.933Z,8.35
2022-11-16T00:56:45.079Z,8.32
2022-11-16T00:59:12.238Z,8.18
2022-11-16T01:01:39.534Z,8.23
2022-11-16T01:04:06.759Z,8.00
2022-11-16T01:06:33.988Z,8.32
2022-11-16T01:09:01.833Z,8.43
2022-11-16T01:11:47.776Z,8.45
2022-11-16T01:14:14.930Z,8.18
2022-11-16T01:16:42.117Z,7.83
2022-11-16T01:19:09.771Z,8.30
2022-11-16T01:21:37.004Z,8.30
2022-11-16T01:24:04.406Z,8.35
2022-11-16T01:26:31.572Z,8.43
2022-11-16T01:28:59.591Z,8.93
2022-11-16T01:31:26.773Z,8.98
2022-11-16T01:33:54.964Z,8.55
2022-11-16T01:36:22.108Z,7.85
2022-11-16T01:38:50.526Z,9.13
2022-11-16T01:41:22.044Z,8.73
2022-11-16T01:43:56.918Z,9.43
2022-11-16T01:46:24.373Z,9.50
2022-11-16T01:48:54.533Z,10.20
2022-11-16T01:51:22.472Z,8.95
2022-11-16T01:53:49.971Z,8.93
2022-11-16T01:56:17.162Z,10.00
2022-11-16T01:58:44.216Z,9.50
2022-11-16T02:01:11.295Z,9.00
2022-11-16T02:03:39.081Z,9.75
2022-11-16T02:06:26.523Z,9.57
2022-11-16T02:09:22.891Z,9.25
2022-11-16T02:11:52.714Z,9.60
2022-11-16T02:14:42.600Z,9.50
2022-11-16T02:17:48.268Z,9.90
2022-11-16T02:20:33.815Z,8.50
2022-11-16T02:23:27.051Z,9.88
2022-11-16T02:26:12.953Z,8.93
2022-11-16T02:28:43.189Z,9.05
2022-11-16T02:31:13.746Z,9.20
2022-11-16T02:33:41.860Z,9.07
2022-11-16T02:36:11.406Z,9.77
2022-11-16T02:38:45.211Z,9.68
2022-11-16T02:41:14.911Z,9.35
2022-11-16T02:43:43.525Z,9.50
2022-11-16T02:46:14.246Z,9.73
2022-11-16T02:48:44.152Z,9.75
2022-11-16T02:51:11.834Z,9.80
2022-11-16T02:53:41.919Z,10.23
2022-11-16T02:56:12.487Z,9.77
2022-11-16T02:58:39.774Z,10.50
2022-11-16T03:01:13.584Z,9.88
2022-11-16T03:03:43.406Z,9.35
2022-11-16T03:06:13.845Z,10.20
2022-11-16T03:08:44.264Z,10.88
2022-11-16T03:11:30.781Z,10.03
2022-11-16T03:14:04.590Z,10.48
2022-11-16T03:16:41.055Z,10.70
2022-11-16T03:19:10.642Z,10.63
2022-11-16T03:21:40.109Z,10.25
2022-11-16T03:24:08.333Z,10.73
2022-11-16T03:26:50.542Z,10.93
2022-11-16T03:29:25.897Z,10.85
2022-11-16T03:31:55.901Z,10.20
2022-11-16T03:34:26.133Z,10.38
2022-11-16T03:36:54.333Z,9.70
2022-11-16T03:39:23.392Z,9.57
2022-11-16T03:41:50.630Z,8.85
2022-11-16T03:44:19.095Z,9.52
2022-11-16T03:46:46.911Z,8.48
2022-11-16T03:49:14.144Z,8.53
2022-11-16T03:51:41.441Z,8.88
2022-11-16T03:54:08.606Z,8.55
2022-11-16T03:56:35.658Z,7.90
2022-11-16T03:59:02.738Z,8.38
2022-11-16T04:01:29.820Z,7.70
2022-11-16T04:03:56.899Z,7.97
2022-11-16T04:06:43.252Z,7.82
2022-11-16T04:09:29.633Z,7.40
2022-11-16T04:12:15.833Z,7.18
2022-11-16T04:15:02.339Z,6.70
2022-11-16T04:17:48.405Z,6.93
2022-11-16T04:20:34.731Z,7.03
2022-11-16T04:23:30.185Z,6.13
2022-11-16T04:25:57.499Z,6.70
2022-11-16T04:28:25.875Z,6.63
2022-11-16T04:31:12.589Z,6.43
2022-11-16T04:33:58.670Z,6.18
2022-11-16T04:36:44.672Z,5.93
2022-11-16T04:39:11.918Z,6.07
2022-11-16T04:41:57.704Z,5.90
2022-11-16T04:44:29.865Z,6.15
2022-11-16T04:47:06.541Z,5.50
2022-11-16T04:49:33.896Z,5.95
2022-11-16T04:52:01.313Z,5.60
2022-11-16T04:54:28.509Z,5.70
2022-11-16T04:56:55.956Z,6.30
2022-11-16T04:59:23.154Z,5.55
2022-11-16T05:02:08.485Z,6.15
2022-11-16T05:04:36.340Z,5.80
2022-11-16T05:07:03.634Z,5.57
2022-11-16T05:09:30.737Z,5.65
2022-11-16T05:11:57.770Z,5.60
2022-11-16T05:14:24.926Z,5.72
2022-11-16T05:16:51.978Z,5.70
2022-11-16T05:19:37.871Z,6.10
2022-11-16T05:22:05.097Z,6.00
2022-11-16T05:24:35.348Z,6.47
2022-11-16T05:27:04.084Z,6.45
2022-11-16T05:29:31.462Z,7.10
2022-11-16T05:31:59.352Z,6.37
2022-11-16T05:34:26.806Z,7.45
2022-11-16T05:36:53.973Z,7.95
2022-11-16T05:39:21.277Z,7.97
2022-11-16T05:41:48.936Z,8.10
2022-11-16T05:44:16.313Z,8.23
2022-11-16T05:46:44.269Z,7.80
2022-11-16T05:49:11.963Z,8.07
2022-11-16T05:51:40.341Z,8.02
2022-11-16T05:54:07.847Z,8.27
2022-11-16T05:56:35.280Z,8.77
2022-11-16T05:59:02.724Z,9.45
2022-11-16T06:01:29.823Z,9.23
2022-11-16T06:03:59.351Z,8.80
2022-11-16T06:06:26.529Z,8.65
2022-11-16T06:08:53.598Z,9.20
2022-11-16T06:11:21.002Z,9.07
2022-11-16T06:13:48.200Z,8.77
2022-11-16T06:16:15.397Z,9.05
2022-11-16T06:18:43.959Z,9.45
2022-11-16T06:21:11.482Z,9.00
2022-11-16T06:23:38.893Z,8.63
2022-11-16T06:26:06.656Z,9.63
2022-11-16T06:28:34.253Z,9.32
2022-11-16T06:31:01.934Z,9.50
2022-11-16T06:33:33.322Z,9.30
2022-11-16T06:36:01.062Z,9.40
2022-11-16T06:38:28.314Z,9.05
2022-11-16T06:40:57.048Z,9.20
2022-11-16T06:43:24.643Z,9.15
2022-11-16T06:45:52.929Z,9.20
2022-11-16T06:48:20.593Z,9.20
2022-11-16T06:50:51.955Z,8.68
2022-11-16T06:53:19.396Z,8.95
2022-11-16T06:55:46.535Z,7.95
2022-11-16T06:58:13.676Z,8.50
2022-11-16T07:00:41.039Z,8.55
2022-11-16T07:03:08.249Z,8.50
2022-11-16T07:05:35.643Z,7.70
2022-11-16T07:08:03.864Z,7.90
2022-11-16T07:10:31.075Z,7.50
2022-11-16T07:12:58.257Z,7.10
2022-11-16T07:15:25.465Z,6.07
2022-11-16T07:17:52.796Z,5.75
2022-11-16T07:20:20.970Z,5.75
2022-11-16T07:22:48.155Z,5.57
2022-11-16T07:25:15.417Z,5.00
2022-11-16T07:27:42.558Z,4.78
2022-11-16T07:30:10.043Z,4.18
2022-11-16T07:32:39.825Z,4.20
2022-11-16T07:35:07.291Z,3.80
2022-11-16T07:37:34.422Z,3.47
2022-11-16T07:40:01.579Z,3.50
2022-11-16T07:42:28.833Z,3.50
2022-11-16T07:44:56.071Z,3.40
2022-11-16T07:47:23.213Z,3.27
2022-11-16T07:49:50.485Z,3.22
2022-11-16T07:52:17.633Z,3.00
2022-11-16T07:54:44.854Z,2.70
2022-11-16T07:57:12.141Z,2.90
2022-11-16T07:59:39.378Z,2.83
2022-11-16T08:02:06.878Z,3.05
2022-11-16T08:04:34.174Z,3.17
2022-11-16T08:07:01.485Z,2.85
2022-11-16T08:09:28.674Z,2.50
2022-11-16T08:11:56.065Z,3.57
2022-11-16T08:14:23.494Z,3.53
2022-11-16T08:16:50.874Z,2.90
2022-11-16T08:19:18.229Z,2.83
2022-11-16T08:21:45.819Z,2.50
2022-11-16T08:24:13.126Z,2.37
2022-11-16T08:26:40.414Z,3.03
2022-11-16T08:29:07.655Z,3.10
2022-11-16T08:31:34.993Z,2.45
2022-11-16T08:34:02.339Z,2.58
2022-11-16T08:36:29.574Z,2.53
2022-11-16T08:38:56.950Z,2.90
2022-11-16T08:41:24.284Z,3.33
2022-11-16T08:43:53.217Z,3.30
2022-11-16T08:46:21.262Z,3.70
2022-11-16T08:48:48.466Z,3.77
2022-11-16T08:51:19.472Z,3.50
2022-11-16T08:53:48.199Z,3.65
2022-11-16T08:56:16.311Z,3.90
2022-11-16T08:58:44.213Z,4.10
2022-11-16T09:01:16.355Z,3.57
2022-11-16T09:03:43.683Z,3.17
2022-11-16T09:06:11.324Z,4.03
2022-11-16T09:08:39.626Z,3.38
2022-11-16T09:11:07.489Z,3.30
2022-11-16T09:13:34.746Z,2.67
2022-11-16T09:16:02.600Z,3.33
2022-11-16T09:18:30.069Z,3.28
2022-11-16T09:20:57.483Z,2.90
2022-11-16T09:23:25.676Z,3.03
2022-11-16T09:25:53.276Z,3.10
2022-11-16T09:28:20.728Z,2.80
2022-11-16T09:30:49.488Z,2.83
2022-11-16T09:33:16.629Z,3.05
2022-11-16T09:35:44.053Z,2.95
2022-11-16T09:38:16.003Z,2.50
2022-11-16T09:40:47.538Z,2.80
2022-11-16T09:43:20.808Z,2.78
2022-11-16T09:45:56.851Z,2.88
2022-11-16T09:48:24.614Z,2.90
2022-11-16T09:50:53.947Z,3.27
2022-11-16T09:53:34.065Z,2.88
2022-11-16T09:56:06.676Z,2.90
2022-11-16T09:58:41.573Z,2.70
2022-11-16T10:01:17.354Z,2.50
2022-11-16T10:03:49.178Z,2.50
2022-11-16T10:06:30.097Z,2.20
2022-11-16T10:08:57.314Z,2.50
2022-11-16T10:11:43.404Z,2.75
2022-11-16T10:14:25.477Z,2.50
2022-11-16T10:16:55.561Z,2.30
2022-11-16T10:19:25.560Z,2.35
2022-11-16T10:22:10.803Z,2.72
2022-11-16T10:24:37.984Z,2.50
2022-11-16T10:27:05.132Z,2.17
2022-11-16T10:29:56.518Z,2.57
2022-11-16T10:32:30.767Z,2.35
2022-11-16T10:35:09.018Z,2.50
2022-11-16T10:37:38.115Z,2.40
2022-11-16T10:40:31.849Z,2.47
2022-11-16T10:43:25.343Z,2.30
2022-11-16T10:46:01.557Z,2.00
2022-11-16T10:48:37.235Z,2.30
2022-11-16T10:51:05.429Z,1.92
2022-11-16T10:53:36.986Z,2.17
2022-11-16T10:56:17.560Z,1.70
2022-11-16T10:59:01.244Z,1.95
2022-11-16T11:01:38.908Z,1.80
2022-11-16T11:04:21.283Z,1.83
2022-11-16T11:06:51.452Z,2.22
2022-11-16T11:09:35.695Z,2.27
2022-11-16T11:12:35.512Z,1.90
2022-11-16T11:15:02.779Z,2.13
2022-11-16T11:17:31.805Z,1.92
2022-11-16T11:20:04.338Z,1.60
2022-11-16T11:22:32.981Z,2.50
2022-11-16T11:25:03.257Z,1.80
2022-11-16T11:27:33.219Z,2.05
2022-11-16T11:30:01.064Z,1.70
2022-11-16T11:32:39.154Z,1.38
2022-11-16T11:35:06.796Z,2.37
2022-11-16T11:37:35.290Z,1.48
2022-11-16T11:40:22.253Z,1.70
2022-11-16T11:42:56.324Z,1.50
2022-11-16T11:45:33.752Z,1.75
2022-11-16T11:48:13.850Z,1.80
2022-11-16T11:50:44.016Z,1.63
2022-11-16T11:53:11.034Z,2.03
2022-11-16T11:55:38.437Z,1.65
2022-11-16T11:58:06.696Z,1.83
2022-11-16T12:00:42.093Z,1.80
2022-11-16T12:03:30.295Z,1.70
2022-11-16T12:06:00.315Z,2.05
2022-11-16T12:08:27.399Z,1.85
2022-11-16T12:11:14.739Z,1.85
2022-11-16T12:13:41.753Z,2.17
2022-11-16T12:16:11.747Z,1.98
2022-11-16T12:18:57.773Z,1.90
2022-11-16T12:21:34.205Z,2.20
2022-11-16T12:24:01.410Z,2.28
2022-11-16T12:26:28.715Z,2.20
2022-11-16T12:29:08.347Z,1.88
2022-11-16T12:31:50.996Z,2.33
2022-11-16T12:34:33.476Z,2.50
2022-11-16T12:37:04.980Z,2.00
2022-11-16T12:39:36.378Z,2.00
2022-11-16T12:42:03.663Z,2.42
2022-11-16T12:44:49.156Z,1.88
2022-11-16T12:47:18.936Z,1.73
2022-11-16T12:50:04.934Z,1.73
2022-11-16T12:52:41.996Z,1.57
2022-11-16T12:55:25.843Z,1.40
2022-11-16T12:58:10.895Z,1.48
2022-11-16T13:00:45.823Z,1.63
2022-11-16T13:03:15.915Z,1.40
2022-11-16T13:05:42.937Z,1.43
2022-11-16T13:08:17.016Z,1.30
2022-11-16T13:10:46.113Z,1.60
2022-11-16T13:13:35.943Z,1.38
2022-11-16T13:16:06.324Z,1.20
2022-11-16T13:18:33.887Z,1.33
2022-11-16T13:21:12.185Z,1.50
2022-11-16T13:24:05.801Z,1.13
2022-11-16T13:26:55.046Z,1.13
2022-11-16T13:29:30.239Z,1.15
2022-11-16T13:32:01.697Z,1.10
2022-11-16T13:34:37.106Z,1.17
2022-11-16T13:37:24.328Z,1.27
2022-11-16T13:39:51.635Z,1.08
2022-11-16T13:42:19.089Z,1.35
2022-11-16T13:44:51.388Z,1.30
2022-11-16T13:47:24.145Z,1.30
2022-11-16T13:50:02.523Z,1.25
2022-11-16T13:53:46.173Z,1.63
2022-11-16T13:55:39.807Z,1.70
2022-11-16T13:58:07.647Z,1.30
2022-11-16T14:00:40.050Z,1.20
2022-11-16T14:03:16.228Z,1.30
2022-11-16T14:05:43.515Z,1.15
2022-11-16T14:08:19.672Z,1.30
2022-11-16T14:11:07.088Z,1.70
2022-11-16T14:13:47.391Z,1.20
2022-11-16T14:16:21.576Z,1.30
2022-11-16T14:18:54.960Z,1.60
2022-11-16T14:21:37.590Z,2.58
2022-11-16T14:24:23.870Z,1.30
2022-11-16T14:27:07.704Z,1.40
2022-11-16T14:29:42.130Z,1.58
2022-11-16T14:32:20.850Z,1.67
2022-11-16T14:34:49.690Z,1.40
2022-11-16T14:37:37.047Z,1.40
2022-11-16T14:40:17.615Z,1.55
2022-11-16T14:45:47.082Z,1.40
2022-11-16T14:48:18.555Z,1.50
2022-11-16T14:50:47.672Z,1.40
2022-11-16T14:53:19.781Z,1.85
2022-11-16T14:55:46.973Z,1.40
2022-11-16T14:58:24.221Z,1.30
2022-11-16T15:00:59.142Z,1.30
2022-11-16T15:03:27.931Z,1.30
2022-11-16T15:05:59.998Z,1.40
2022-11-16T15:08:39.367Z,1.20
2022-11-16T15:11:09.472Z,1.42
2022-11-16T15:13:37.108Z,1.20
2022-11-16T15:16:16.218Z,1.30
2022-11-16T15:18:56.253Z,1.30
2022-11-16T15:21:23.804Z,1.50
2022-11-16T15:24:15.599Z,1.50
2022-11-16T15:26:38.947Z,1.55
2022-11-16T15:29:06.126Z,1.43
2022-11-16T15:31:34.989Z,1.60
2022-11-16T15:34:02.233Z,1.85
2022-11-16T15:36:33.285Z,1.90
2022-11-16T15:39:01.289Z,2.47
2022-11-16T15:41:29.348Z,1.70
2022-11-16T15:44:14.988Z,1.70
2022-11-16T15:46:43.618Z,1.95
2022-11-16T15:49:37.124Z,1.52
2022-11-16T15:52:04.579Z,1.98
2022-11-16T15:54:51.840Z,2.40
2022-11-16T15:57:19.987Z,2.92
2022-11-16T15:59:48.705Z,3.25
2022-11-16T16:02:23.448Z,3.67
2022-11-16T16:04:51.050Z,2.28
2022-11-16T16:07:37.501Z,2.23
2022-11-16T16:10:19.835Z,2.50
2022-11-16T16:12:57.304Z,3.45
2022-11-16T16:15:26.224Z,2.10
2022-11-16T16:17:56.127Z,2.17
2022-11-16T16:20:24.583Z,2.67
2022-11-16T16:22:52.333Z,2.70
2022-11-16T16:25:26.765Z,2.67
2022-11-16T16:27:53.900Z,2.65
2022-11-16T16:30:21.064Z,2.80
2022-11-16T16:32:51.978Z,2.60
2022-11-16T16:35:20.831Z,2.28
2022-11-16T16:37:52.752Z,2.30
2022-11-16T16:40:20.086Z,1.90
2022-11-16T16:42:50.849Z,2.10
2022-11-16T16:45:20.786Z,2.00
2022-11-16T16:47:47.938Z,2.20
2022-11-16T16:50:15.086Z,2.20
2022-11-16T16:52:42.807Z,1.92
2022-11-16T16:55:09.960Z,2.10
2022-11-16T16:57:37.106Z,2.17
2022-11-16T17:00:04.562Z,2.00
2022-11-16T17:02:31.782Z,2.55
2022-11-16T17:04:59.047Z,2.70
2022-11-16T17:07:26.258Z,2.45
2022-11-16T17:09:53.552Z,2.37
2022-11-16T17:12:20.720Z,2.80
2022-11-16T17:14:51.707Z,2.20
2022-11-16T17:17:19.594Z,2.13
2022-11-16T17:19:46.891Z,2.10
2022-11-16T17:22:14.933Z,2.10
2022-11-16T17:24:42.100Z,2.63
2022-11-16T17:27:09.250Z,2.30
2022-11-16T17:29:36.471Z,1.90
2022-11-16T17:32:03.815Z,2.10
2022-11-16T17:34:31.422Z,2.10
2022-11-16T17:36:58.550Z,2.47
2022-11-16T17:39:25.647Z,2.13
2022-11-16T17:41:52.762Z,2.30
2022-11-16T17:44:21.940Z,2.35
2022-11-16T17:46:49.524Z,2.43
2022-11-16T17:49:16.699Z,2.40
2022-11-16T17:51:44.326Z,2.15
2022-11-16T17:54:11.559Z,2.58
2022-11-16T17:56:38.835Z,2.50
2022-11-16T17:59:06.012Z,2.20
2022-11-16T18:01:33.415Z,2.40
2022-11-16T18:04:02.437Z,2.40
2022-11-16T18:06:29.748Z,2.20
2022-11-16T18:08:57.590Z,2.63
2022-11-16T18:11:26.239Z,2.23
2022-11-16T18:13:54.438Z,2.20
2022-11-16T18:16:22.596Z,2.38
2022-11-16T18:18:50.411Z,2.40
2022-11-16T18:21:20.604Z,2.72
2022-11-16T18:23:47.905Z,2.57
2022-11-16T18:26:16.024Z,2.28
2022-11-16T18:28:45.209Z,2.40
2022-11-16T18:31:13.690Z,2.70
2022-11-16T18:33:40.761Z,2.78
2022-11-16T18:36:08.520Z,3.10
2022-11-16T18:38:39.225Z,2.30
2022-11-16T18:41:12.363Z,2.80
2022-11-16T18:43:40.317Z,2.30
2022-11-16T18:46:07.390Z,2.60
2022-11-16T18:48:34.717Z,2.40
2022-11-16T18:51:02.593Z,2.38
2022-11-16T18:53:30.302Z,2.40
2022-11-16T18:55:58.384Z,2.10
2022-11-16T19:01:15.835Z,2.00
2022-11-16T19:03:43.195Z,2.10
2022-11-16T19:06:11.127Z,2.00
2022-11-16T19:08:39.006Z,2.13
2022-11-16T19:11:07.056Z,2.00
2022-11-16T19:13:34.433Z,2.83
2022-11-16T19:16:01.750Z,2.00
2022-11-16T19:18:28.963Z,2.00
2022-11-16T19:21:12.237Z,2.08
2022-11-16T19:23:43.418Z,1.90
2022-11-16T19:26:12.615Z,1.63
2022-11-16T19:28:40.809Z,2.05
2022-11-16T19:31:10.683Z,2.00
2022-11-16T19:33:38.678Z,2.45
2022-11-16T19:36:06.930Z,1.55
2022-11-16T19:38:34.381Z,2.23
2022-11-16T19:41:01.424Z,2.00
2022-11-16T19:43:28.464Z,1.92
2022-11-16T19:45:55.580Z,1.67
2022-11-16T19:48:22.702Z,1.70
2022-11-16T19:50:49.757Z,1.70
2022-11-16T19:53:16.884Z,1.90
2022-11-16T19:55:44.237Z,1.80
2022-11-16T19:58:14.323Z,1.65
2022-11-16T20:00:41.385Z,1.67
2022-11-16T20:03:08.467Z,1.87
2022-11-16T20:05:35.496Z,1.80
2022-11-16T20:08:02.582Z,2.10
2022-11-16T20:10:30.690Z,1.92
2022-11-16T20:12:58.269Z,1.70
2022-11-16T20:15:25.900Z,1.83
2022-11-16T20:17:53.334Z,1.90
2022-11-16T20:20:20.645Z,1.80
2022-11-16T20:22:48.656Z,2.15
2022-11-16T20:25:16.672Z,1.83
2022-11-16T20:27:43.741Z,1.83
2022-11-16T20:30:11.416Z,1.98
2022-11-16T20:32:38.446Z,1.70
2022-11-16T20:35:05.662Z,1.75
2022-11-16T20:37:32.732Z,1.80
2022-11-16T20:39:59.825Z,1.90
2022-11-16T20:42:26.978Z,1.70
2022-11-16T20:44:54.089Z,1.67
2022-11-16T20:47:21.254Z,1.67
2022-11-16T20:49:48.370Z,1.92
2022-11-16T20:52:15.675Z,1.60
2022-11-16T20:54:42.870Z,1.92
2022-11-16T20:57:10.056Z,1.60
2022-11-16T20:59:37.155Z,1.65
2022-11-16T21:02:04.395Z,1.52
2022-11-16T21:04:31.589Z,1.57
2022-11-16T21:06:58.791Z,1.63
2022-11-16T21:09:25.986Z,1.90
2022-11-16T21:12:11.949Z,1.75
2022-11-16T21:14:39.077Z,1.58
2022-11-16T21:17:06.192Z,1.23
2022-11-16T21:19:33.352Z,1.60
2022-11-16T21:22:00.499Z,1.63
2022-11-16T21:24:28.279Z,1.30
2022-11-16T21:26:55.415Z,1.52
2022-11-16T21:29:25.826Z,1.40
2022-11-16T21:31:52.875Z,1.50
2022-11-16T21:34:20.192Z,1.60
2022-11-16T21:36:47.526Z,1.50
2022-11-16T21:39:14.578Z,1.60
2022-11-16T21:41:41.640Z,1.30
2022-11-16T21:44:08.737Z,1.05
2022-11-16T21:46:35.832Z,1.45
2022-11-16T21:49:03.058Z,1.25
2022-11-16T21:51:30.789Z,1.58
2022-11-16T21:53:57.938Z,1.53
2022-11-16T21:56:26.092Z,1.30
2022-11-16T21:58:53.682Z,1.30
2022-11-16T22:01:21.032Z,1.60
2022-11-16T22:04:08.266Z,1.60
2022-11-16T22:06:54.188Z,1.53
2022-11-16T22:09:21.579Z,1.40
2022-11-16T22:11:48.639Z,1.42
2022-11-16T22:14:15.677Z,1.67
2022-11-16T22:16:42.710Z,1.75
2022-11-16T22:19:09.798Z,1.63
2022-11-16T22:21:36.844Z,1.40
2022-11-16T22:24:04.002Z,1.40
2022-11-16T22:26:31.141Z,1.48
2022-11-16T22:28:59.160Z,1.60
2022-11-16T22:31:26.338Z,2.00
2022-11-16T22:33:53.830Z,1.40
2022-11-16T22:36:20.952Z,1.83
2022-11-16T22:38:48.111Z,1.60
2022-11-16T22:41:15.322Z,1.30
2022-11-16T22:43:42.519Z,1.70
2022-11-16T22:46:10.069Z,2.45
2022-11-16T22:48:38.712Z,1.52
2022-11-16T22:51:06.968Z,1.83
2022-11-16T22:53:34.859Z,1.70
2022-11-16T22:56:06.406Z,1.80
2022-11-16T22:58:33.805Z,1.95
2022-11-16T23:01:01.643Z,2.05
2022-11-16T23:03:29.507Z,2.30
2022-11-16T23:05:56.698Z,2.80
2022-11-16T23:08:24.948Z,1.90
2022-11-16T23:11:21.224Z,2.33
2022-11-16T23:14:07.680Z,2.17
2022-11-16T23:16:35.032Z,2.20
2022-11-16T23:19:02.134Z,2.10
2022-11-16T23:21:47.895Z,2.33
2022-11-16T23:24:35.002Z,2.35
2022-11-16T23:27:22.170Z,2.08
2022-11-16T23:29:49.522Z,2.55
2022-11-16T23:32:16.694Z,1.80
2022-11-16T23:34:43.864Z,2.33
2022-11-16T23:37:11.065Z,1.85
2022-11-16T23:39:38.201Z,1.75
2022-11-16T23:42:23.978Z,2.10
2022-11-16T23:44:51.023Z,1.85
2022-11-16T23:47:18.081Z,1.93
2022-11-16T23:49:45.122Z,1.90
2022-11-16T23:52:12.291Z,2.60
2022-11-16T23:54:39.346Z,1.65
2022-11-16T23:57:06.729Z,2.28
2022-11-16T23:59:33.846Z,1.43
